This is the latest recevied weather packets stored in our database for station/object DB7GV-8. If no packets are shown the sender has not sent any weather packets the latest 10 day(s).
| Time | Temp. | Humidity | Pressure | Rain* | Wind** | Luminosity | Snow |
|---|---|---|---|---|---|---|---|
| 1778229204 | 22.78° C | 39% | 1016.7 hPa | - | - | - | - |
| 1778228299 | 22.78° C | 36% | 1016.8 hPa | - | - | - | - |
| 1778227394 | 38.33° C | 20% | 1016.9 hPa | - | - | - | - |
| 1778226488 | 39.44° C | 19% | 1016.9 hPa | - | - | - | - |
| 1778225582 | 38.33° C | 20% | 1017 hPa | - | - | - | - |
| 1778224677 | 36.67° C | 23% | 1017.1 hPa | - | - | - | - |
| 1778223772 | 35° C | 26% | 1017.2 hPa | - | - | - | - |
| 1778222866 | 27.22° C | 43% | 1017.5 hPa | - | - | - | - |
| 1778221961 | 23.33° C | 54% | 1017.4 hPa | - | - | - | - |
| 1778221056 | 8.89° C | 85% | 1017.3 hPa | - | - | - | - |
| 1778220150 | 7.78° C | 86% | 1017.3 hPa | - | - | - | - |
| 1778219245 | 7.22° C | 86% | 1017.4 hPa | - | - | - | - |
| 1778218340 | 6.67° C | 86% | 1017.4 hPa | - | - | - | - |
| 1778217434 | 6.67° C | 86% | 1017.4 hPa | - | - | - | - |
| 1778216529 | 6.11° C | 87% | 1017.4 hPa | - | - | - | - |
| 1778215623 | 6.11° C | 86% | 1017.2 hPa | - | - | - | - |
| 1778214718 | 6.11° C | 86% | 1017.2 hPa | - | - | - | - |
| 1778213812 | 6.11° C | 86% | 1017 hPa | - | - | - | - |
| 1778212907 | 5.56° C | 86% | 1017 hPa | - | - | - | - |
| 1778212002 | 5.56° C | 85% | 1016.9 hPa | - | - | - | - |
| 1778211096 | 6.11° C | 86% | 1016.9 hPa | - | - | - | - |
| 1778210190 | 6.11° C | 86% | 1016.9 hPa | - | - | - | - |
| 1778209285 | 6.11° C | 86% | 1016.9 hPa | - | - | - | - |
| 1778208379 | 6.11° C | 86% | 1016.9 hPa | - | - | - | - |
| 1778207474 | 6.11° C | 86% | 1016.9 hPa | - | - | - | - |
* Rain since midnight (hover to see other rain measurements)
** Current wind speed in m/s (hover to see current wind gust speed)